Time;durP1;ratioP1;P1;durP2;ratioP2;P2;SDS_P1;SDS_P2;PMS_P1;PMS_P2;Temp;Humidity;BMP_temperature;BMP_pressure;BME280_temperature;BME280_humidity;BME280_pressure;Samples;Min_cycle;Max_cycle;Signal;HPM_P1;HPM_P2
2021/08/17 00:02:56;;;;;;;3.70;1.75;;;;;;;17.79;56.32;99674.25;1866163;95;28783;-66
2021/08/17 00:06:01;;;;;;;4.08;1.90;;;;;;;17.74;56.56;99672.47;1868126;95;31316;-67
2021/08/17 00:09:03;;;;;;;2.47;1.55;;;;;;;17.70;56.60;99682.73;1868463;95;34223;-65
2021/08/17 00:12:06;;;;;;;2.77;1.77;;;;;;;17.68;56.78;99684.72;1868655;95;30330;-66
2021/08/17 00:15:10;;;;;;;2.85;1.65;;;;;;;17.64;56.73;99688.69;1867269;95;27892;-66
2021/08/17 00:18:11;;;;;;;2.65;2.10;;;;;;;17.58;56.70;99688.75;1931782;91;28851;-66
2021/08/17 00:21:15;;;;;;;3.05;1.32;;;;;;;17.41;56.64;99660.44;1950470;91;32008;-64
2021/08/17 00:24:16;;;;;;;2.08;1.85;;;;;;;17.41;56.64;99660.44;1950109;90;33122;-66
2021/08/17 00:27:19;;;;;;;6.90;1.92;;;;;;;17.50;56.84;99687.20;1952152;91;29946;-65
2021/08/17 00:30:21;;;;;;;5.10;2.08;;;;;;;17.47;56.69;99691.53;1952157;91;27767;-65
2021/08/17 00:33:24;;;;;;;4.80;1.70;;;;;;;17.45;56.77;99690.33;1952020;91;29602;-65
2021/08/17 00:36:31;;;;;;;1.87;1.50;;;;;;;17.44;56.89;99693.18;1950248;91;31303;-65
2021/08/17 00:39:33;;;;;;;2.87;1.52;;;;;;;17.43;56.90;99692.30;1949666;91;34273;-64
2021/08/17 00:42:46;;;;;;;3.70;1.80;;;;;;;17.22;56.74;99666.64;1949709;91;29861;-65
2021/08/17 00:45:48;;;;;;;3.15;2.15;;;;;;;17.22;56.74;99666.64;1950172;90;27689;-65
2021/08/17 00:48:51;;;;;;;4.30;1.77;;;;;;;17.32;57.03;99680.22;1952158;91;29960;-66
2021/08/17 00:51:58;;;;;;;3.08;1.80;;;;;;;17.29;57.25;99675.91;1952447;91;31083;-65
2021/08/17 00:55:05;;;;;;;3.52;2.00;;;;;;;17.25;57.30;99674.50;1969672;89;32985;-66
2021/08/17 00:58:07;;;;;;;4.80;1.87;;;;;;;17.22;57.68;99683.36;1952244;91;29552;-66
2021/08/17 01:01:11;;;;;;;4.67;2.02;;;;;;;17.16;57.95;99680.22;1952552;91;27803;-63
2021/08/17 01:04:13;;;;;;;5.62;1.98;;;;;;;17.14;58.83;99685.38;1952514;91;28728;-65
2021/08/17 01:07:15;;;;;;;3.17;1.80;;;;;;;17.11;59.41;99673.50;1951366;91;32042;-65
2021/08/17 01:10:17;;;;;;;3.90;2.02;;;;;;;16.90;59.53;99654.52;1950089;90;33702;-65
2021/08/17 01:13:23;;;;;;;4.67;2.12;;;;;;;16.93;59.99;99678.61;1952344;90;30539;-65
2021/08/17 01:16:25;;;;;;;6.80;1.98;;;;;;;16.85;60.34;99683.33;1955897;89;27691;-65
2021/08/17 01:19:27;;;;;;;3.50;1.82;;;;;;;16.74;60.28;99670.73;1954517;91;29038;-65
2021/08/17 01:22:29;;;;;;;4.35;2.00;;;;;;;16.66;60.77;99665.13;1951413;91;32243;-64
2021/08/17 01:25:37;;;;;;;5.45;2.40;;;;;;;16.59;61.12;99666.16;1951718;91;33932;-64
2021/08/17 01:28:40;;;;;;;5.17;2.27;;;;;;;16.55;61.43;99672.80;1928375;91;29799;-65
2021/08/17 01:31:42;;;;;;;5.37;2.40;;;;;;;16.48;61.42;99677.88;1952234;91;28186;-65
2021/08/17 01:34:44;;;;;;;5.37;1.85;;;;;;;16.42;61.39;99678.89;1905841;93;29182;-66
2021/08/17 01:37:46;;;;;;;4.08;1.85;;;;;;;16.37;61.57;99688.23;1951826;91;32254;-66
2021/08/17 01:40:48;;;;;;;5.60;2.60;;;;;;;16.30;61.74;99688.88;1951860;91;34318;-66
2021/08/17 01:43:51;;;;;;;3.75;2.50;;;;;;;16.24;62.04;99687.55;1952086;91;30525;-67
2021/08/17 01:46:52;;;;;;;4.47;2.00;;;;;;;16.18;61.87;99697.03;1952360;91;27739;-67
2021/08/17 01:49:54;;;;;;;4.62;2.62;;;;;;;16.15;62.12;99693.70;1941284;91;29052;-67
2021/08/17 01:52:56;;;;;;;7.97;2.42;;;;;;;16.09;62.16;99696.43;1936724;90;32268;-66
2021/08/17 01:56:13;;;;;;;4.05;1.87;;;;;;;16.06;62.25;99702.95;1936631;91;34325;-67
2021/08/17 01:59:16;;;;;;;3.35;2.27;;;;;;;16.02;62.07;99706.05;1868751;94;29478;-66
2021/08/17 02:02:18;;;;;;;3.80;2.05;;;;;;;15.95;62.01;99711.09;1838533;96;27896;-66
2021/08/17 02:05:23;;;;;;;5.08;2.30;;;;;;;15.90;61.53;99720.06;1838267;95;28743;-66
2021/08/17 02:08:23;;;;;;;2.90;2.20;;;;;;;15.86;61.58;99722.16;1838668;96;31100;-65
2021/08/17 02:11:26;;;;;;;4.12;2.20;;;;;;;15.80;61.63;99726.16;1838301;96;32978;-66
2021/08/17 02:14:28;;;;;;;3.67;2.37;;;;;;;15.78;61.68;99723.23;1838299;96;29358;-68
2021/08/17 02:17:30;;;;;;;3.85;2.17;;;;;;;15.76;62.04;99731.94;1840458;95;27787;-66
2021/08/17 02:20:33;;;;;;;6.35;2.30;;;;;;;15.76;61.86;99733.29;1814517;96;28690;-65
2021/08/17 02:23:35;;;;;;;5.72;2.42;;;;;;;15.73;61.74;99730.83;1871597;95;32057;-65
2021/08/17 02:26:37;;;;;;;4.47;2.25;;;;;;;15.68;61.86;99729.86;1855085;93;34011;-65
2021/08/17 02:29:39;;;;;;;4.33;1.87;;;;;;;15.62;61.62;99730.37;1849686;96;30173;-66
2021/08/17 02:32:41;;;;;;;4.10;2.05;;;;;;;15.56;61.83;99731.69;1849872;96;27717;-65
2021/08/17 02:35:44;;;;;;;4.55;1.90;;;;;;;15.52;61.62;99732.94;1882726;92;29251;-65
2021/08/17 02:38:46;;;;;;;2.70;2.00;;;;;;;15.48;61.80;99737.70;1916852;92;31847;-65
2021/08/17 02:41:48;;;;;;;2.95;1.52;;;;;;;15.45;62.04;99743.84;1916892;92;33493;-65
2021/08/17 02:44:50;;;;;;;7.70;2.33;;;;;;;15.43;62.17;99749.37;1916938;92;30503;-64
2021/08/17 02:48:01;;;;;;;4.17;2.33;;;;;;;15.42;61.75;99757.58;1917415;91;27752;-65
2021/08/17 02:51:02;;;;;;;7.33;2.22;;;;;;;15.38;61.89;99752.08;1916619;92;28667;-63
2021/08/17 02:54:06;;;;;;;8.80;2.87;;;;;;;15.36;61.87;99749.98;1916721;92;31705;-65
2021/08/17 02:57:09;;;;;;;4.72;1.90;;;;;;;15.33;62.08;99746.55;1916588;92;33754;-65
2021/08/17 03:00:13;;;;;;;6.67;2.37;;;;;;;15.32;61.92;99748.87;1916882;92;29402;-66
2021/08/17 03:03:17;;;;;;;4.87;2.02;;;;;;;15.27;61.65;99751.06;1917079;92;33134;-65
2021/08/17 03:06:21;;;;;;;5.08;1.85;;;;;;;15.22;61.83;99757.33;1917192;92;28735;-65
2021/08/17 03:09:24;;;;;;;8.33;2.40;;;;;;;15.21;61.96;99753.38;1925492;91;32286;-62
2021/08/17 03:12:26;;;;;;;8.48;2.25;;;;;;;15.19;61.89;99749.47;1924025;91;33144;-65
2021/08/17 03:15:32;;;;;;;5.15;2.50;;;;;;;15.17;62.14;99756.81;1916738;92;30130;-65
2021/08/17 03:18:34;;;;;;;7.90;2.83;;;;;;;15.16;62.38;99767.23;1916273;92;27716;-66
2021/08/17 03:21:37;;;;;;;8.68;2.25;;;;;;;15.12;62.27;99771.14;1916279;92;29564;-65
2021/08/17 03:24:40;;;;;;;4.83;2.67;;;;;;;15.04;62.46;99760.95;1944514;91;31077;-64
2021/08/17 03:27:45;;;;;;;8.98;2.65;;;;;;;14.98;62.53;99759.59;1915955;92;33821;-63
2021/08/17 03:30:46;;;;;;;;;;;;;;;14.95;63.14;99763.02;1918485;92;29549;-66
2021/08/17 03:33:51;;;;;;;6.37;2.62;;;;;;;14.89;63.34;99771.09;1957076;90;28536;-65
2021/08/17 03:36:53;;;;;;;7.45;2.92;;;;;;;14.83;63.54;99768.35;1929663;92;29992;-64
2021/08/17 03:39:56;;;;;;;6.35;2.87;;;;;;;14.80;63.45;99781.22;1929764;92;31064;-65
2021/08/17 03:42:59;;;;;;;4.92;2.65;;;;;;;14.73;63.54;99783.02;1928165;92;33855;-64
2021/08/17 03:46:02;;;;;;;12.95;3.65;;;;;;;14.69;63.69;99780.67;1926657;92;30199;-65
2021/08/17 03:49:04;;;;;;;6.10;3.15;;;;;;;14.69;64.22;99786.95;1926733;92;28252;-65
2021/08/17 03:52:07;;;;;;;8.35;2.75;;;;;;;14.69;64.48;99791.45;1927017;92;29497;-65
2021/08/17 03:55:11;;;;;;;10.43;3.10;;;;;;;14.69;64.63;99790.11;1926659;92;32355;-65
2021/08/17 03:58:14;;;;;;;6.27;2.53;;;;;;;14.67;64.58;99790.20;1929220;92;33786;-65
2021/08/17 04:01:17;;;;;;;7.80;3.00;;;;;;;14.67;64.68;99803.69;1930000;91;29387;-64
2021/08/17 04:04:20;;;;;;;8.20;3.65;;;;;;;14.67;64.94;99805.50;1929946;92;27697;-66
2021/08/17 04:07:31;;;;;;;5.33;2.90;;;;;;;14.68;64.90;99819.39;1929755;92;29088;-66
2021/08/17 04:10:32;;;;;;;7.85;2.50;;;;;;;14.70;65.39;99816.98;1920540;90;27787;-66
2021/08/17 04:13:37;;;;;;;6.70;2.90;;;;;;;14.72;65.27;99819.08;1920699;92;34180;-65
2021/08/17 04:16:39;;;;;;;10.07;3.20;;;;;;;14.73;65.27;99821.27;1921184;92;29357;-66
2021/08/17 04:19:43;;;;;;;8.75;3.15;;;;;;;14.71;65.26;99813.78;1950785;90;27700;-64
2021/08/17 04:22:46;;;;;;;9.13;3.13;;;;;;;14.71;65.31;99818.70;1960470;90;28681;-64
2021/08/17 04:25:48;;;;;;;5.97;3.30;;;;;;;14.73;65.58;99815.88;1968596;87;31708;-66
2021/08/17 04:28:52;;;;;;;10.95;3.80;;;;;;;14.75;65.49;99808.53;1995554;89;34264;-65
2021/08/17 04:31:56;;;;;;;6.35;2.70;;;;;;;14.78;65.59;99812.83;1995575;89;29389;-64
2021/08/17 04:34:58;;;;;;;8.30;3.20;;;;;;;14.80;65.50;99821.66;1961116;89;27757;-64
2021/08/17 04:38:05;;;;;;;7.45;3.05;;;;;;;14.82;65.53;99821.06;1952615;91;29126;-65
2021/08/17 04:41:07;;;;;;;6.75;3.05;;;;;;;14.81;65.45;99824.73;1952394;91;31203;-65
2021/08/17 04:44:10;;;;;;;6.58;3.00;;;;;;;14.80;65.31;99829.75;1952375;91;33369;-64
2021/08/17 04:47:13;;;;;;;4.55;2.50;;;;;;;14.82;65.30;99831.85;1952479;89;30175;-63
2021/08/17 04:50:16;;;;;;;7.28;2.92;;;;;;;14.83;65.27;99836.27;1952378;91;27760;-65
2021/08/17 04:53:19;;;;;;;5.37;2.95;;;;;;;14.84;65.25;99842.04;1952575;91;28710;-64
2021/08/17 04:56:23;;;;;;;6.75;3.00;;;;;;;14.84;65.20;99844.73;1975829;89;31079;-64
2021/08/17 04:59:26;;;;;;;7.85;3.00;;;;;;;14.85;65.12;99841.91;1995698;89;34135;-64
2021/08/17 05:02:28;;;;;;;5.80;2.80;;;;;;;14.86;64.97;99846.33;1995789;89;29350;-64
2021/08/17 05:05:31;;;;;;;6.25;3.10;;;;;;;14.86;64.85;99849.03;1989897;89;27680;-64
2021/08/17 05:08:35;;;;;;;7.42;3.08;;;;;;;14.91;64.74;99856.77;1952298;91;28703;-64
2021/08/17 05:11:37;;;;;;;5.78;2.95;;;;;;;14.94;64.67;99855.20;1952539;91;31734;-64
2021/08/17 05:14:39;;;;;;;7.45;2.60;;;;;;;14.97;64.64;99843.34;1962204;89;35088;-64
2021/08/17 05:17:42;;;;;;;10.65;3.17;;;;;;;15.02;64.30;99850.57;1995454;89;30147;-65
2021/08/17 05:20:45;;;;;;;7.85;2.75;;;;;;;15.06;64.28;99854.77;1995823;89;27578;-65
2021/08/17 05:23:47;;;;;;;5.42;2.80;;;;;;;15.08;64.06;99862.26;1993484;89;29993;-64
2021/08/17 05:26:49;;;;;;;7.22;3.22;;;;;;;15.14;63.94;99864.97;1952200;90;32098;-64
2021/08/17 05:30:26;;;;;;;6.40;2.92;;;;;;;15.22;64.04;99865.73;1954885;89;33838;-65
2021/08/17 05:33:04;;;;;;;6.80;3.50;;;;;;;15.27;63.88;99871.66;1917788;81;27639;-62
2021/08/17 05:36:12;;;;;;;4.67;2.75;;;;;;;15.33;63.80;99881.96;1955269;90;27692;-70
2021/08/17 05:42:37;;;;;;;6.50;3.40;;;;;;;15.44;63.54;99891.94;1670542;104;28140;-70
2021/08/17 05:45:39;;;;;;;9.33;3.52;;;;;;;15.49;63.34;99892.45;1682938;105;34091;-72
2021/08/17 05:48:41;;;;;;;5.00;3.00;;;;;;;15.55;63.23;99892.47;1685381;105;29419;-71
2021/08/17 05:51:42;;;;;;;6.78;3.37;;;;;;;15.62;62.87;99896.43;1686544;104;27771;-62
2021/08/17 05:54:44;;;;;;;5.85;3.10;;;;;;;15.65;62.84;99911.89;1684653;105;28696;-62
2021/08/17 05:58:02;;;;;;;4.85;2.80;;;;;;;15.73;62.80;99903.67;1681281;105;32305;-62
2021/08/17 06:01:04;;;;;;;5.03;2.95;;;;;;;15.80;62.67;99899.02;1681731;105;33029;-62
2021/08/17 06:04:10;;;;;;;8.40;3.40;;;;;;;15.89;62.29;99906.08;1681418;105;29755;-63
2021/08/17 06:07:23;;;;;;;5.95;3.20;;;;;;;15.98;62.08;99902.64;1710369;104;27856;-62
2021/08/17 06:10:31;;;;;;;8.33;3.60;;;;;;;16.04;61.81;99902.16;1702187;103;28970;-63
2021/08/17 06:14:09;;;;;;;11.40;3.30;;;;;;;16.15;61.81;99893.69;1711581;103;31173;-62
2021/08/17 06:16:47;;;;;;;6.45;3.00;;;;;;;16.30;61.64;99899.22;1674890;103;29957;-62
2021/08/17 06:19:51;;;;;;;6.03;3.27;;;;;;;16.46;61.58;99898.85;1846338;84;29368;-62
2021/08/17 06:22:55;;;;;;;4.65;3.22;;;;;;;16.60;61.11;99893.69;1970696;89;27647;-60
2021/08/17 06:25:57;;;;;;;8.70;3.37;;;;;;;16.73;60.90;99898.08;1990326;89;28644;-61
2021/08/17 06:29:03;;;;;;;7.65;3.25;;;;;;;16.85;60.41;99897.94;1989847;89;31904;-62
2021/08/17 06:32:09;;;;;;;11.60;3.05;;;;;;;16.99;60.13;99910.84;2002664;88;34217;-62
2021/08/17 06:35:12;;;;;;;9.70;3.05;;;;;;;17.11;60.11;99903.05;2023879;87;28921;-63
2021/08/17 06:38:15;;;;;;;5.83;2.95;;;;;;;17.28;59.76;99912.47;2023990;87;28190;-62
2021/08/17 06:41:18;;;;;;;5.62;2.80;;;;;;;17.52;59.18;99913.23;2020415;88;29475;-64
2021/08/17 06:44:21;;;;;;;5.83;2.80;;;;;;;17.52;59.18;99913.23;1990039;89;31026;-62
2021/08/17 06:47:24;;;;;;;5.60;2.85;;;;;;;17.67;58.86;99899.72;2008992;88;32975;-62
2021/08/17 06:50:27;;;;;;;7.60;2.67;;;;;;;17.83;58.40;99910.08;2024014;88;29341;-61
2021/08/17 06:53:31;;;;;;;4.75;2.58;;;;;;;17.92;58.34;99917.91;1995901;88;28267;-62
2021/08/17 06:56:35;;;;;;;11.20;3.20;;;;;;;17.97;57.83;99917.02;1990258;88;28759;-62
2021/08/17 06:59:37;;;;;;;8.58;2.70;;;;;;;18.05;57.81;99919.09;1990005;89;31132;-62
2021/08/17 07:02:39;;;;;;;11.28;2.67;;;;;;;18.19;57.35;99914.67;2007852;88;34205;-62
2021/08/17 07:05:44;;;;;;;6.65;2.75;;;;;;;18.34;56.94;99920.60;2017215;87;30155;-62
2021/08/17 07:08:49;;;;;;;9.20;2.72;;;;;;;18.84;57.20;99918.91;2011798;88;27639;-62
2021/08/17 07:11:52;;;;;;;9.85;3.65;;;;;;;19.76;56.54;99917.33;1990011;89;28257;-62
2021/08/17 07:14:57;;;;;;;7.47;3.75;;;;;;;20.51;55.09;99922.85;1989876;89;31044;-62
2021/08/17 07:18:00;;;;;;;6.95;2.33;;;;;;;21.31;54.49;99928.20;1989941;89;33647;-62
2021/08/17 07:21:04;;;;;;;6.67;2.50;;;;;;;21.69;53.23;99933.01;2032310;87;29493;-62
2021/08/17 07:24:07;;;;;;;9.80;2.35;;;;;;;21.67;51.96;99937.77;2070023;86;27725;-62
2021/08/17 07:27:11;;;;;;;5.78;2.75;;;;;;;21.62;51.92;99937.36;2069991;85;28729;-62
2021/08/17 07:30:37;;;;;;;9.23;2.95;;;;;;;21.43;51.80;99935.13;2068879;86;30935;-62
2021/08/17 07:33:32;;;;;;;6.15;2.52;;;;;;;21.24;51.02;99933.41;2025893;87;28728;-61
2021/08/17 07:36:36;;;;;;;6.20;2.42;;;;;;;21.04;51.39;99932.70;2069910;86;29819;-61
2021/08/17 07:39:38;;;;;;;7.97;2.83;;;;;;;20.86;50.78;99940.33;2070333;85;27665;-62
2021/08/17 07:42:53;;;;;;;6.53;2.15;;;;;;;20.80;50.79;99940.92;2069576;85;29631;-61
2021/08/17 07:46:10;;;;;;;5.15;2.17;;;;;;;20.81;51.11;99934.47;2067980;86;27677;-66
2021/08/17 07:49:29;;;;;;;5.55;2.30;;;;;;;20.76;50.40;99925.41;2060022;85;29935;-64
2021/08/17 07:52:34;;;;;;;6.55;2.50;;;;;;;20.68;50.67;99932.58;2052946;86;27673;-63
2021/08/17 07:56:07;;;;;;;9.05;2.30;;;;;;;20.60;50.34;99931.98;2065894;86;27678;-61
2021/08/17 07:59:08;;;;;;;6.25;2.60;;;;;;;20.46;50.60;99937.41;2034069;84;27713;-62
2021/08/17 08:01:59;;;;;;;4.35;2.50;;;;;;;20.27;50.44;99932.90;2037731;83;28707;-63
2021/08/17 08:05:02;;;;;;;4.28;2.12;;;;;;;20.08;50.32;99937.91;2112001;83;33035;-66
2021/08/17 08:08:05;;;;;;;7.17;2.70;;;;;;;19.88;50.29;99944.22;2096513;83;30114;-63
2021/08/17 08:11:08;;;;;;;5.30;2.50;;;;;;;19.69;50.34;99948.31;2062371;83;27754;-66
2021/08/17 08:14:09;;;;;;;7.28;2.50;;;;;;;19.55;50.94;99955.03;2113173;83;28691;-68
2021/08/17 08:17:11;;;;;;;8.15;2.15;;;;;;;19.45;50.91;99957.74;2081626;85;30835;-63
2021/08/17 08:20:14;;;;;;;9.13;2.60;;;;;;;19.35;50.92;99958.25;2081058;85;33706;-68
2021/08/17 08:23:16;;;;;;;9.18;2.90;;;;;;;19.48;51.43;99956.59;2093822;83;30376;-70
2021/08/17 08:26:17;;;;;;;4.72;2.60;;;;;;;19.65;50.95;99959.11;2136471;83;27668;-73
2021/08/17 08:29:20;;;;;;;4.92;2.35;;;;;;;19.89;50.97;99957.33;2136642;83;28648;-70
2021/08/17 08:32:23;;;;;;;9.08;3.20;;;;;;;20.04;50.54;99959.95;2136371;83;31198;-65
2021/08/17 08:35:25;;;;;;;5.65;2.95;;;;;;;20.10;50.63;99977.53;2090746;83;33022;-67
2021/08/17 08:38:29;;;;;;;7.28;3.20;;;;;;;20.19;50.41;99969.00;2087842;83;30545;-67
2021/08/17 08:42:11;;;;;;;7.75;2.60;;;;;;;20.27;50.12;99974.55;2113189;83;27822;-69
2021/08/17 08:44:44;;;;;;;7.65;2.85;;;;;;;20.27;49.57;99973.19;2007507;83;27768;-67
2021/08/17 08:47:46;;;;;;;13.65;3.87;;;;;;;20.33;50.09;99977.20;2018335;87;33549;-65
2021/08/17 08:50:49;;;;;;;6.30;3.60;;;;;;;20.48;49.91;99975.72;2030000;87;33147;-64
2021/08/17 08:53:53;;;;;;;6.15;3.20;;;;;;;20.56;49.76;99981.78;2024284;87;30607;-65
2021/08/17 09:01:18;;;;;;;9.15;4.03;;;;;;;20.72;49.24;99977.04;1747514;97;27841;-61
2021/08/17 09:03:50;;;;;;;5.70;3.62;;;;;;;20.69;49.37;99980.58;1746714;98;27903;-67
2021/08/17 09:17:43;;;;;;;7.58;3.40;;;;;;;20.16;49.50;99981.53;1700596;104;27869;-64
2021/08/17 09:20:48;;;;;;;7.50;2.92;;;;;;;20.34;49.37;99981.13;1703471;103;31877;-66
2021/08/17 09:24:28;;;;;;;3.90;2.47;;;;;;;20.61;49.15;99988.13;1726140;103;34883;-63
2021/08/17 09:28:07;;;;;;;4.85;2.95;;;;;;;20.84;48.76;99985.91;1716355;103;27776;-63
2021/08/17 09:50:38;;;;;;;6.72;2.65;;;;;;;21.76;46.85;99985.04;1726458;99;28014;-71
2021/08/17 09:54:08;;;;;;;5.62;2.62;;;;;;;21.83;46.52;99985.61;1724435;102;31170;-70
2021/08/17 09:59:58;;;;;;;8.25;2.42;;;;;;;22.13;46.72;99991.64;1807823;91;27815;-62
2021/08/17 10:03:01;;;;;;;6.20;2.42;;;;;;;22.16;46.51;99990.48;1826029;97;27849;-65
2021/08/17 10:06:03;;;;;;;8.75;2.60;;;;;;;22.08;46.15;99993.14;1866500;95;28717;-63
2021/08/17 10:09:05;;;;;;;6.40;2.35;;;;;;;21.98;45.86;99999.55;1866769;95;31109;-66
2021/08/17 10:12:08;;;;;;;7.30;2.58;;;;;;;21.79;45.64;99993.75;1866367;95;33163;-65
2021/08/17 10:15:12;;;;;;;4.15;2.08;;;;;;;21.69;45.52;99992.98;1866497;95;29389;-65
2021/08/17 10:18:20;;;;;;;4.92;2.45;;;;;;;21.83;46.13;99994.31;1866759;95;27739;-67
2021/08/17 10:21:30;;;;;;;5.22;2.10;;;;;;;22.17;46.60;99993.56;1914546;90;28906;-66
2021/08/17 10:24:44;;;;;;;4.65;2.70;;;;;;;22.70;46.30;100001.25;1961959;89;30986;-61
2021/08/17 10:27:50;;;;;;;3.90;2.58;;;;;;;23.09;45.65;99995.77;1961743;89;34223;-61
2021/08/17 10:30:54;;;;;;;4.92;1.82;;;;;;;23.48;45.64;99987.03;1961884;90;29448;-61
2021/08/17 10:34:11;;;;;;;4.12;2.02;;;;;;;23.55;44.40;99991.31;1962392;89;27701;-62
2021/08/17 10:37:22;;;;;;;4.42;2.20;;;;;;;23.53;43.87;99994.72;1962072;89;28775;-62
2021/08/17 10:40:54;;;;;;;7.62;2.33;;;;;;;23.41;44.05;99998.81;1946621;89;31079;-61
2021/08/17 10:44:01;;;;;;;3.33;2.30;;;;;;;23.46;44.20;100006.84;1939459;91;33412;-61
2021/08/17 10:47:07;;;;;;;8.85;2.12;;;;;;;23.31;43.37;100006.63;1939650;91;30115;-62
2021/08/17 10:50:15;;;;;;;4.70;2.08;;;;;;;23.04;43.68;100003.11;1972395;89;27740;-61
2021/08/17 10:53:42;;;;;;;7.72;2.27;;;;;;;22.82;43.33;100007.28;1962832;88;52009;-61
2021/08/17 10:56:48;;;;;;;6.70;1.95;;;;;;;22.54;43.60;100006.09;1956111;91;31943;-62
2021/08/17 10:59:52;;;;;;;5.17;2.15;;;;;;;22.36;43.90;100003.89;1947221;90;33715;-63
2021/08/17 11:02:56;;;;;;;7.72;2.83;;;;;;;22.19;43.89;100007.88;1966850;89;29609;-61
2021/08/17 11:05:57;;;;;;;3.65;1.70;;;;;;;21.95;44.01;100004.45;1966790;90;27754;-61
2021/08/17 11:09:00;;;;;;;4.67;1.92;;;;;;;21.76;44.31;100016.39;1975515;88;28096;-62
2021/08/17 11:12:09;;;;;;;3.87;1.92;;;;;;;21.58;45.03;100024.03;1990017;89;31151;-60
2021/08/17 11:15:15;;;;;;;5.22;2.27;;;;;;;21.46;45.60;100023.91;2014789;88;33029;-61
2021/08/17 11:18:20;;;;;;;5.97;1.85;;;;;;;21.45;45.68;100027.13;2011957;87;29975;-62
2021/08/17 11:21:40;;;;;;;5.60;2.05;;;;;;;21.50;45.88;100029.41;1953381;88;30109;-60
2021/08/17 11:24:53;;;;;;;4.90;2.37;;;;;;;21.60;45.64;100028.86;1934864;91;28388;-62
2021/08/17 11:27:56;;;;;;;6.30;2.40;;;;;;;21.74;45.30;100032.05;1959308;89;31125;-61
2021/08/17 11:31:00;;;;;;;4.10;1.90;;;;;;;21.90;45.33;100030.84;1997850;88;33114;-61
2021/08/17 11:34:23;;;;;;;3.80;1.83;;;;;;;22.12;45.20;100028.64;1992285;88;29347;-62
2021/08/17 11:37:26;;;;;;;4.85;1.77;;;;;;;22.29;44.83;100030.48;1959890;90;27735;-62
2021/08/17 11:40:30;;;;;;;5.45;2.12;;;;;;;22.33;44.30;100041.09;2012181;87;28702;-62
2021/08/17 11:43:32;;;;;;;;;;;;;;;22.21;44.08;100043.20;2028966;87;31856;-61
2021/08/17 11:46:33;;;;;;;6.78;2.12;;;;;;;22.12;44.45;100046.38;2061635;86;32988;-61
2021/08/17 11:49:36;;;;;;;4.62;2.25;;;;;;;22.00;44.49;100048.00;2042663;86;30357;-61
2021/08/17 11:52:43;;;;;;;3.60;2.22;;;;;;;21.89;44.37;100054.19;2024790;87;27760;-62
2021/08/17 11:55:46;;;;;;;3.92;1.80;;;;;;;21.68;44.23;100053.45;2014836;88;28694;-62
2021/08/17 11:58:54;;;;;;;4.67;1.90;;;;;;;21.35;44.22;100045.41;2016086;86;31843;-62
2021/08/17 12:02:00;;;;;;;3.67;1.62;;;;;;;21.05;44.32;100053.73;1971823;88;33970;-61
2021/08/17 12:05:13;;;;;;;7.67;2.00;;;;;;;20.87;44.54;100051.45;2012235;87;29415;-61
2021/08/17 12:08:19;;;;;;;6.37;2.15;;;;;;;20.71;44.70;100053.42;2029363;86;27725;-62
2021/08/17 12:11:22;;;;;;;4.00;1.82;;;;;;;20.76;45.08;100052.52;1992996;87;29316;-63
2021/08/17 12:14:25;;;;;;;5.55;2.40;;;;;;;20.85;45.02;100051.61;1950701;90;31083;-63
2021/08/17 12:17:28;;;;;;;6.78;2.00;;;;;;;20.96;45.14;100050.56;1997088;86;33859;-62
2021/08/17 12:20:32;;;;;;;4.12;2.83;;;;;;;21.02;44.97;100050.47;2024676;87;29481;-62
2021/08/17 12:23:44;;;;;;;5.47;2.60;;;;;;;21.07;45.14;100044.07;2025029;87;28010;-62
2021/08/17 12:26:55;;;;;;;5.58;2.05;;;;;;;21.05;45.29;100044.73;2024404;87;29139;-62
2021/08/17 12:30:00;;;;;;;4.62;2.10;;;;;;;21.00;45.21;100041.59;2029254;86;27868;-62
2021/08/17 12:33:02;;;;;;;7.35;2.12;;;;;;;20.85;45.14;100046.69;2049519;86;33777;-62
2021/08/17 12:36:04;;;;;;;8.70;2.30;;;;;;;20.65;44.98;100050.28;2050058;86;29692;-62
2021/08/17 12:39:20;;;;;;;7.53;2.45;;;;;;;20.48;45.14;100050.55;2031811;86;27683;-63
2021/08/17 12:42:23;;;;;;;8.95;2.70;;;;;;;20.37;45.54;100047.98;2020611;87;28657;-63
2021/08/17 12:45:35;;;;;;;6.50;2.52;;;;;;;20.39;45.88;100050.06;2016542;87;31057;-62
2021/08/17 12:48:44;;;;;;;7.03;2.37;;;;;;;20.42;45.79;100043.48;2011856;86;33655;-62
2021/08/17 12:51:47;;;;;;;8.05;2.47;;;;;;;20.47;46.00;100043.39;2016211;88;29335;-63
2021/08/17 12:54:50;;;;;;;6.90;2.42;;;;;;;20.47;45.84;100037.08;2017031;88;27762;-63
2021/08/17 12:57:55;;;;;;;3.17;2.12;;;;;;;20.41;45.84;100039.89;2019327;86;28648;-62
2021/08/17 13:00:57;;;;;;;7.47;2.17;;;;;;;20.32;46.03;100042.14;2009803;86;31094;-63
2021/08/17 13:03:59;;;;;;;9.23;2.60;;;;;;;20.22;46.20;100043.52;2004426;88;33752;-63
2021/08/17 13:07:02;;;;;;;3.87;2.22;;;;;;;20.14;46.47;100043.37;2004437;88;30506;-62
2021/08/17 13:10:07;;;;;;;8.38;2.20;;;;;;;20.10;46.58;100052.84;2006780;88;28320;-63
2021/08/17 13:13:09;;;;;;;5.10;2.05;;;;;;;20.02;46.74;100052.20;2004507;88;28855;-62
2021/08/17 13:16:11;;;;;;;7.62;2.55;;;;;;;19.98;47.34;100041.25;2004476;88;32294;-63
2021/08/17 13:19:16;;;;;;;5.87;2.33;;;;;;;19.96;47.27;100043.25;2026065;87;34253;-62
2021/08/17 13:22:19;;;;;;;5.57;2.17;;;;;;;20.02;47.17;100044.89;2040873;86;30265;-60
2021/08/17 13:25:21;;;;;;;6.53;2.55;;;;;;;20.18;47.44;100044.80;2040842;87;27611;-61
2021/08/17 13:28:23;;;;;;;5.58;2.45;;;;;;;20.40;47.53;100042.25;2028645;87;29972;-61
2021/08/17 13:31:28;;;;;;;4.97;2.00;;;;;;;20.58;47.16;100038.77;1987609;89;32406;-61
2021/08/17 13:34:32;;;;;;;6.78;2.62;;;;;;;20.65;46.90;100036.67;1987286;89;27877;-61
2021/08/17 13:37:33;;;;;;;6.87;2.37;;;;;;;20.61;46.98;100031.68;1971609;90;29736;-62
2021/08/17 13:40:37;;;;;;;5.72;2.20;;;;;;;20.55;46.59;100039.06;1974693;89;27684;-61
2021/08/17 13:43:41;;;;;;;8.50;2.73;;;;;;;20.40;46.57;100038.17;1982540;89;29351;-61
2021/08/17 13:46:44;;;;;;;6.55;2.17;;;;;;;20.27;46.69;100041.20;2007800;87;31442;-61
2021/08/17 13:49:49;;;;;;;4.20;2.30;;;;;;;20.31;46.85;100034.47;1977817;89;32990;-61
2021/08/17 13:52:51;;;;;;;6.50;2.00;;;;;;;20.34;46.84;100034.18;1971595;90;30205;-61
2021/08/17 13:55:53;;;;;;;3.80;1.80;;;;;;;20.43;47.02;100032.96;1972755;90;27715;-61
2021/08/17 13:58:56;;;;;;;5.47;2.00;;;;;;;20.61;46.49;100033.04;1981099;89;29488;-61
2021/08/17 14:02:01;;;;;;;7.65;2.27;;;;;;;20.67;46.72;100039.27;1989018;88;27744;-61
2021/08/17 14:05:04;;;;;;;5.60;2.60;;;;;;;20.78;46.73;100043.67;1971965;88;32294;-61
2021/08/17 14:08:07;;;;;;;6.42;2.40;;;;;;;20.83;46.78;100035.92;2011484;87;29344;-61
2021/08/17 14:11:10;;;;;;;4.08;1.85;;;;;;;20.82;46.65;100045.09;1974139;89;27754;-62
2021/08/17 14:14:13;;;;;;;6.03;2.10;;;;;;;20.78;46.33;100049.12;1999116;87;28675;-62
2021/08/17 14:17:16;;;;;;;7.00;2.17;;;;;;;20.77;46.34;100045.55;1966927;89;31895;-62
2021/08/17 14:20:18;;;;;;;3.90;1.95;;;;;;;20.75;46.34;100048.92;1995999;87;33689;-61
2021/08/17 14:23:21;;;;;;;4.95;2.00;;;;;;;20.70;46.26;100045.75;1998653;87;29373;-61
2021/08/17 14:26:30;;;;;;;6.37;2.02;;;;;;;20.64;46.26;100049.08;1985128;88;34980;-61
2021/08/17 14:29:33;;;;;;;3.45;1.85;;;;;;;20.62;46.53;100051.93;1962095;89;28744;-61
2021/08/17 14:32:36;;;;;;;5.03;2.02;;;;;;;20.60;46.44;100049.86;1994682;88;31218;-62
2021/08/17 14:35:41;;;;;;;4.53;2.17;;;;;;;20.58;46.43;100049.66;1964011;89;33747;-62
2021/08/17 14:38:43;;;;;;;;;;;;;;;20.58;46.60;100049.17;2027839;87;30080;-62
2021/08/17 14:41:45;;;;;;;3.17;2.20;;;;;;;20.63;46.47;100051.45;2032982;86;27704;-62
2021/08/17 14:44:47;;;;;;;4.95;2.33;;;;;;;20.65;46.84;100048.92;1998374;89;28665;-62
2021/08/17 14:47:49;;;;;;;3.70;1.90;;;;;;;20.74;46.65;100050.41;1961906;89;32350;-62
2021/08/17 14:50:53;;;;;;;5.78;2.17;;;;;;;20.87;46.74;100049.59;1994993;88;34122;-62
2021/08/17 14:53:58;;;;;;;4.45;1.90;;;;;;;21.02;46.62;100047.74;1979654;89;29440;-62
2021/08/17 14:56:59;;;;;;;3.87;2.27;;;;;;;21.16;46.52;100049.96;1998940;87;27706;-62
2021/08/17 15:00:02;;;;;;;5.87;2.12;;;;;;;21.22;46.11;100042.55;2001256;87;29545;-62
2021/08/17 15:03:04;;;;;;;7.20;2.25;;;;;;;21.21;45.93;100050.86;2040325;87;32406;-62
2021/08/17 15:06:07;;;;;;;3.12;1.90;;;;;;;21.19;46.10;100040.62;1980252;89;33094;-62
2021/08/17 15:09:09;;;;;;;6.92;1.80;;;;;;;21.15;45.83;100044.16;1988360;89;29918;-62